Carora, Venezuela
Current Conditions -  °F | °C
As of 12:00 PM on Sunday 21 Dec 2014 (Local Time) from SVBM Reporting Station
Scattered Clouds Scattered Clouds  
Wind Chill: 84°   Ceiling: Unl
Heat Index: 86°   Visibility: 6mi
Dew Point: 64°   Wind: 7mph
Humidity: 51%   Direction: 110°ESE
Pressure: 30.09"   Gusts: NA
Location:  10.19°N, 70.08°W
Report Text: SVBM 211600Z 11006KT 9999 SCT016 29/18 Q1019
Loading
Personal Weather Stations






























Interactive Weather Map New forecast layout! Learn more

10-Day Weather Forecast

Advertisements
Track Severe Weather on mobile